createdAt,value
2022-08-03T00:00:27.034Z,24.75
2022-08-03T00:02:54.130Z,24.61
2022-08-03T00:05:21.017Z,24.55
2022-08-03T00:07:48.585Z,24.36
2022-08-03T00:10:16.614Z,24.17
2022-08-03T00:12:43.152Z,24.33
2022-08-03T00:15:14.994Z,24.34
2022-08-03T00:17:53.387Z,24.48
2022-08-03T00:20:24.242Z,24.54
2022-08-03T00:22:51.456Z,24.37
2022-08-03T00:25:18.074Z,24.04
2022-08-03T00:27:44.637Z,24.36
2022-08-03T00:30:11.453Z,24.57
2022-08-03T00:32:40.031Z,24.61
2022-08-03T00:35:18.072Z,24.67
2022-08-03T00:37:58.816Z,24.63
2022-08-03T00:40:25.467Z,24.33
2022-08-03T00:42:59.835Z,24.42
2022-08-03T00:45:31.290Z,24.45
2022-08-03T00:47:58.247Z,24.41
2022-08-03T00:50:28.179Z,24.51
2022-08-03T00:52:56.960Z,24.30
2022-08-03T00:55:24.333Z,24.44
2022-08-03T00:57:51.382Z,24.34
2022-08-03T01:00:23.386Z,24.39
2022-08-03T01:02:50.164Z,24.36
2022-08-03T01:05:16.828Z,24.41
2022-08-03T01:07:50.143Z,24.39
2022-08-03T01:10:22.746Z,24.44
2022-08-03T01:13:01.933Z,24.26
2022-08-03T01:15:44.427Z,24.37
2022-08-03T01:18:26.253Z,24.18
2022-08-03T01:20:56.447Z,23.82
2022-08-03T01:23:34.595Z,23.88
2022-08-03T01:26:13.206Z,24.09
2022-08-03T01:28:54.857Z,23.97
2022-08-03T01:31:25.888Z,23.92
2022-08-03T01:33:57.660Z,24.14
2022-08-03T01:36:28.945Z,24.14
2022-08-03T01:39:05.122Z,23.77
2022-08-03T01:41:36.978Z,23.92
2022-08-03T01:44:29.966Z,23.79
2022-08-03T01:46:53.420Z,23.87
2022-08-03T01:49:20.067Z,24.04
2022-08-03T01:51:57.975Z,23.99
2022-08-03T01:54:35.441Z,23.92
2022-08-03T01:57:02.738Z,23.72
2022-08-03T01:59:30.728Z,24.21
2022-08-03T02:02:15.941Z,24.07
2022-08-03T02:04:45.550Z,23.92
2022-08-03T02:07:12.674Z,24.01
2022-08-03T02:09:40.323Z,23.76
2022-08-03T02:12:11.228Z,23.71
2022-08-03T02:14:39.761Z,23.96
2022-08-03T02:17:10.035Z,24.00
2022-08-03T02:19:37.290Z,23.52
2022-08-03T02:22:05.151Z,23.84
2022-08-03T02:24:32.107Z,23.76
2022-08-03T02:27:00.041Z,23.62
2022-08-03T02:29:39.629Z,23.85
2022-08-03T02:32:10.336Z,23.80
2022-08-03T02:34:37.719Z,23.30
2022-08-03T02:37:04.669Z,23.10
2022-08-03T02:39:33.479Z,23.60
2022-08-03T02:42:03.574Z,23.46
2022-08-03T02:44:32.682Z,23.46
2022-08-03T02:47:03.717Z,23.63
2022-08-03T02:49:40.583Z,23.51
2022-08-03T02:52:19.016Z,23.10
2022-08-03T02:54:46.628Z,23.14
2022-08-03T02:57:13.969Z,23.11
2022-08-03T02:59:41.107Z,23.00
2022-08-03T03:02:07.914Z,23.24
2022-08-03T03:04:35.319Z,23.01
2022-08-03T03:07:04.360Z,23.03
2022-08-03T03:09:40.326Z,22.83
2022-08-03T03:12:10.835Z,22.98
2022-08-03T03:14:38.307Z,23.10
2022-08-03T03:17:06.944Z,23.08
2022-08-03T03:19:34.058Z,23.26
2022-08-03T03:22:01.603Z,23.00
2022-08-03T03:24:29.332Z,23.15
2022-08-03T03:26:56.758Z,23.36
2022-08-03T03:29:23.789Z,22.94
2022-08-03T03:31:50.427Z,23.13
2022-08-03T03:34:17.206Z,23.21
2022-08-03T03:36:43.747Z,23.05
2022-08-03T03:39:15.492Z,23.17
2022-08-03T03:41:42.878Z,23.09
2022-08-03T03:44:09.589Z,23.21
2022-08-03T03:46:36.325Z,23.09
2022-08-03T03:49:02.970Z,22.88
2022-08-03T03:51:29.592Z,22.58
2022-08-03T03:54:00.636Z,22.84
2022-08-03T03:56:27.458Z,22.59
2022-08-03T03:58:54.077Z,22.75
2022-08-03T04:01:20.923Z,22.84
2022-08-03T04:03:47.474Z,23.22
2022-08-03T04:06:32.813Z,22.91
2022-08-03T04:09:19.088Z,22.92
2022-08-03T04:11:54.037Z,22.73
2022-08-03T04:14:30.290Z,22.70
2022-08-03T04:17:04.280Z,22.79
2022-08-03T04:19:34.559Z,22.70
2022-08-03T04:22:03.813Z,23.30
2022-08-03T04:24:36.716Z,23.28
2022-08-03T04:27:08.460Z,22.66
2022-08-03T04:29:38.703Z,23.49
2022-08-03T04:32:15.290Z,23.11
2022-08-03T04:34:42.123Z,23.21
2022-08-03T04:37:15.181Z,23.47
2022-08-03T04:39:43.084Z,23.21
2022-08-03T04:42:12.006Z,23.39
2022-08-03T04:44:41.999Z,23.42
2022-08-03T04:47:08.749Z,23.65
2022-08-03T04:49:37.595Z,23.59
2022-08-03T04:52:05.692Z,23.65
2022-08-03T04:54:39.557Z,23.27
2022-08-03T04:57:06.114Z,23.35
2022-08-03T04:59:32.836Z,23.59
2022-08-03T05:01:59.458Z,23.30
2022-08-03T05:04:26.095Z,23.91
2022-08-03T05:06:54.930Z,24.13
2022-08-03T05:09:45.959Z,24.31
2022-08-03T05:12:09.642Z,24.51
2022-08-03T05:14:38.327Z,24.66
2022-08-03T05:17:05.842Z,24.83
2022-08-03T05:19:32.709Z,24.93
2022-08-03T05:21:59.416Z,24.62
2022-08-03T05:24:26.068Z,24.73
2022-08-03T05:26:52.619Z,24.74
2022-08-03T05:29:19.312Z,24.64
2022-08-03T05:31:45.881Z,24.84
2022-08-03T05:34:12.395Z,24.73
2022-08-03T05:36:39.637Z,24.90
2022-08-03T05:39:06.389Z,25.19
2022-08-03T05:41:37.145Z,24.99
2022-08-03T05:44:04.486Z,25.36
2022-08-03T05:46:31.265Z,24.57
2022-08-03T05:48:57.894Z,25.28
2022-08-03T05:51:24.447Z,25.44
2022-08-03T05:53:51.024Z,25.68
2022-08-03T05:56:17.663Z,25.72
2022-08-03T05:58:45.974Z,26.07
2022-08-03T06:01:12.861Z,25.85
2022-08-03T06:03:39.604Z,25.83
2022-08-03T06:06:06.263Z,26.32
2022-08-03T06:08:33.001Z,26.59
2022-08-03T06:10:59.746Z,26.75
2022-08-03T06:13:26.316Z,26.82
2022-08-03T06:15:52.899Z,26.75
2022-08-03T06:18:19.953Z,26.83
2022-08-03T06:20:47.221Z,27.25
2022-08-03T06:23:54.157Z,27.34
2022-08-03T06:26:13.520Z,27.47
2022-08-03T06:28:52.406Z,27.60
2022-08-03T06:31:26.003Z,27.36
2022-08-03T06:34:34.506Z,27.64
2022-08-03T06:36:48.501Z,27.48
2022-08-03T06:39:15.097Z,27.72
2022-08-03T06:41:44.858Z,27.70
2022-08-03T06:44:12.111Z,27.43
2022-08-03T06:46:38.924Z,27.75
2022-08-03T06:49:06.995Z,28.17
2022-08-03T06:52:03.132Z,27.99
2022-08-03T06:54:22.232Z,27.69
2022-08-03T06:56:48.843Z,27.72
2022-08-03T07:00:10.527Z,27.21
2022-08-03T07:02:02.207Z,27.66
2022-08-03T07:04:28.779Z,27.76
2022-08-03T07:06:55.362Z,28.03
2022-08-03T07:09:22.496Z,27.21
2022-08-03T07:11:49.171Z,27.39
2022-08-03T07:14:15.702Z,27.49
2022-08-03T07:16:42.249Z,27.82
2022-08-03T07:19:08.840Z,27.71
2022-08-03T07:21:35.370Z,28.02
2022-08-03T07:24:01.938Z,28.32
2022-08-03T07:26:28.511Z,27.55
2022-08-03T07:28:55.112Z,28.11
2022-08-03T07:31:21.631Z,28.44
2022-08-03T07:33:48.265Z,28.69
2022-08-03T07:36:14.835Z,28.94
2022-08-03T07:38:41.423Z,28.85
2022-08-03T07:41:07.915Z,28.56
2022-08-03T07:43:34.434Z,28.49
2022-08-03T07:46:00.990Z,28.54
2022-08-03T07:48:27.468Z,28.39
2022-08-03T07:50:53.969Z,29.10
2022-08-03T07:53:20.549Z,29.29
2022-08-03T07:55:47.113Z,28.93
2022-08-03T07:58:22.010Z,29.17
2022-08-03T08:00:53.044Z,29.38
2022-08-03T08:03:21.765Z,29.96
2022-08-03T08:05:48.960Z,29.87
2022-08-03T08:08:15.522Z,29.94
2022-08-03T08:10:42.281Z,30.17
2022-08-03T08:13:24.697Z,30.00
2022-08-03T08:15:51.239Z,29.66
2022-08-03T08:18:18.441Z,29.70
2022-08-03T08:20:45.050Z,30.38
2022-08-03T08:23:41.684Z,30.54
2022-08-03T08:25:58.551Z,30.75
2022-08-03T08:28:32.620Z,30.99
2022-08-03T08:31:00.906Z,31.13
2022-08-03T08:33:42.058Z,31.32
2022-08-03T08:36:15.554Z,32.07
2022-08-03T08:38:44.480Z,31.41
2022-08-03T08:41:12.020Z,31.81
2022-08-03T08:43:38.898Z,31.55
2022-08-03T08:46:08.235Z,31.73
2022-08-03T08:48:36.291Z,31.48
2022-08-03T08:51:03.956Z,32.02
2022-08-03T08:53:33.099Z,32.15
2022-08-03T08:56:01.222Z,33.29
2022-08-03T08:58:37.280Z,33.65
2022-08-03T09:01:05.475Z,34.49
2022-08-03T09:03:34.350Z,35.16
2022-08-03T09:06:02.228Z,35.76
2022-08-03T09:08:30.565Z,35.44
2022-08-03T09:10:57.266Z,34.26
2022-08-03T09:13:24.063Z,34.68
2022-08-03T09:16:09.916Z,33.92
2022-08-03T09:18:36.797Z,33.88
2022-08-03T09:21:37.281Z,34.69
2022-08-03T09:24:08.477Z,35.60
2022-08-03T09:26:39.778Z,34.04
2022-08-03T09:29:15.423Z,35.58
2022-08-03T09:31:45.353Z,38.60
2022-08-03T09:34:17.669Z,43.17
2022-08-03T09:36:47.882Z,45.78
2022-08-03T09:39:40.361Z,43.58
2022-08-03T09:42:18.707Z,48.50
2022-08-03T09:44:51.535Z,48.20
2022-08-03T09:47:29.668Z,50.36
2022-08-03T09:49:58.812Z,47.81
2022-08-03T09:52:49.317Z,48.13
2022-08-03T09:56:31.633Z,45.31
2022-08-03T09:58:10.188Z,47.33
2022-08-03T10:00:59.026Z,47.32
2022-08-03T10:03:29.051Z,46.87
2022-08-03T10:05:59.537Z,48.61
2022-08-03T10:08:26.823Z,51.82
2022-08-03T10:10:58.476Z,52.71
2022-08-03T10:13:25.175Z,51.79
2022-08-03T10:16:24.944Z,55.17
2022-08-03T10:18:38.347Z,52.72
2022-08-03T10:21:08.883Z,49.47
2022-08-03T10:23:36.758Z,49.26
2022-08-03T10:26:05.517Z,51.28
2022-08-03T10:28:38.309Z,52.18
2022-08-03T10:31:07.787Z,53.64
2022-08-03T10:33:49.483Z,52.29
2022-08-03T10:36:17.305Z,48.99
2022-08-03T10:38:47.726Z,50.66
2022-08-03T10:41:16.212Z,54.26
2022-08-03T10:43:49.563Z,47.04
2022-08-03T10:46:18.251Z,46.70
2022-08-03T10:48:45.285Z,46.18
2022-08-03T10:51:12.388Z,47.69
2022-08-03T10:53:44.044Z,52.09
2022-08-03T10:56:51.821Z,49.42
2022-08-03T10:59:27.764Z,48.44
2022-08-03T11:01:59.902Z,48.18
2022-08-03T11:04:29.812Z,46.32
2022-08-03T11:07:26.251Z,43.27
2022-08-03T11:09:56.586Z,43.19
2022-08-03T11:12:32.395Z,43.75
2022-08-03T11:15:07.723Z,43.47
2022-08-03T11:17:45.802Z,46.85
2022-08-03T11:20:13.655Z,47.65
2022-08-03T11:22:54.509Z,47.84
2022-08-03T11:25:53.686Z,50.66
2022-08-03T11:28:28.461Z,56.43
2022-08-03T11:30:55.097Z,55.57
2022-08-03T11:33:31.508Z,49.54
2022-08-03T11:36:00.158Z,52.83
2022-08-03T11:38:26.705Z,49.11
2022-08-03T11:40:54.064Z,50.86
2022-08-03T11:43:26.747Z,50.88
2022-08-03T11:46:29.601Z,47.21
2022-08-03T11:49:09.474Z,48.23
2022-08-03T11:51:38.737Z,49.36
2022-08-03T11:54:07.671Z,51.66
2022-08-03T11:56:48.637Z,51.12
2022-08-03T11:59:21.575Z,53.14
2022-08-03T12:01:49.012Z,54.43
2022-08-03T12:04:16.311Z,54.43
2022-08-03T12:06:58.638Z,49.79
2022-08-03T12:09:25.173Z,53.27
2022-08-03T12:11:59.898Z,52.86
2022-08-03T12:14:49.770Z,56.25
2022-08-03T12:17:16.107Z,52.99
2022-08-03T12:19:43.655Z,51.08
2022-08-03T12:22:10.241Z,46.60
2022-08-03T12:24:42.405Z,45.53
2022-08-03T12:27:09.216Z,45.47
2022-08-03T12:29:36.180Z,44.34
2022-08-03T12:32:02.778Z,39.61
2022-08-03T12:34:47.412Z,38.05
2022-08-03T12:37:21.762Z,38.44
2022-08-03T12:40:00.648Z,37.60
2022-08-03T12:42:37.048Z,38.03
2022-08-03T12:45:22.891Z,36.58
2022-08-03T12:48:00.225Z,37.29
2022-08-03T12:50:31.569Z,36.64
2022-08-03T12:52:59.633Z,36.18
2022-08-03T12:55:40.083Z,36.62
2022-08-03T12:58:34.652Z,36.55
2022-08-03T13:01:05.022Z,36.66
2022-08-03T13:03:50.315Z,36.69
2022-08-03T13:06:24.777Z,36.51
2022-08-03T13:09:11.551Z,37.16
2022-08-03T13:11:55.658Z,35.10
2022-08-03T13:14:24.823Z,35.53
2022-08-03T13:16:52.019Z,36.11
2022-08-03T13:19:18.709Z,36.38
2022-08-03T13:22:01.977Z,35.64
2022-08-03T13:24:31.914Z,35.39
2022-08-03T13:26:59.589Z,36.13
2022-08-03T13:29:26.219Z,36.54
2022-08-03T13:31:52.855Z,36.52
2022-08-03T13:34:22.930Z,36.58
2022-08-03T13:39:57.545Z,36.34
2022-08-03T13:42:25.663Z,35.93
2022-08-03T13:44:52.426Z,36.49
2022-08-03T13:47:19.601Z,35.54
2022-08-03T13:50:00.002Z,35.91
2022-08-03T13:52:30.357Z,36.36
2022-08-03T13:54:56.919Z,35.07
2022-08-03T13:58:03.969Z,35.82
2022-08-03T14:00:10.951Z,36.52
2022-08-03T14:02:38.234Z,36.02
2022-08-03T14:05:05.228Z,35.81
2022-08-03T14:07:31.853Z,36.67
2022-08-03T14:09:58.377Z,36.64
2022-08-03T14:12:24.929Z,36.63
2022-08-03T14:14:51.449Z,37.35
2022-08-03T14:17:18.422Z,36.65
2022-08-03T14:19:52.611Z,37.08
2022-08-03T14:22:21.023Z,35.80
2022-08-03T14:24:47.667Z,35.92
2022-08-03T14:27:15.894Z,36.78
2022-08-03T14:29:42.448Z,35.89
2022-08-03T14:32:11.424Z,36.79
2022-08-03T14:34:39.594Z,37.38
2022-08-03T14:37:06.183Z,36.60
2022-08-03T14:42:20.421Z,36.46
2022-08-03T14:44:47.466Z,37.03
2022-08-03T14:47:14.530Z,38.22
2022-08-03T14:50:30.779Z,37.83
2022-08-03T14:52:28.004Z,37.45
2022-08-03T14:54:54.583Z,37.24
2022-08-03T14:57:21.471Z,36.95
2022-08-03T14:59:55.902Z,35.84
2022-08-03T15:02:24.796Z,36.58
2022-08-03T15:04:52.083Z,36.56
2022-08-03T15:07:19.196Z,36.87
2022-08-03T15:09:46.080Z,37.47
2022-08-03T15:12:12.639Z,37.87
2022-08-03T15:14:39.270Z,37.52
2022-08-03T15:17:06.381Z,37.81
2022-08-03T15:20:01.171Z,38.64
2022-08-03T15:22:20.657Z,37.93
2022-08-03T15:24:51.301Z,36.79
2022-08-03T15:27:18.006Z,37.19
2022-08-03T15:30:05.357Z,36.56
2022-08-03T15:32:31.273Z,36.14
2022-08-03T15:34:57.776Z,36.71
2022-08-03T15:37:25.809Z,36.41
2022-08-03T15:39:58.902Z,36.48
2022-08-03T15:42:28.495Z,36.18
2022-08-03T15:44:55.139Z,36.37
2022-08-03T15:47:21.949Z,36.79
2022-08-03T15:49:48.693Z,37.18
2022-08-03T15:52:15.436Z,36.40
2022-08-03T15:54:42.013Z,36.54
2022-08-03T15:57:08.560Z,36.51
2022-08-03T15:59:35.114Z,36.92
2022-08-03T16:02:01.868Z,36.57
2022-08-03T16:04:28.629Z,37.74
2022-08-03T16:06:55.166Z,37.49
2022-08-03T16:09:23.386Z,37.18
2022-08-03T16:12:15.913Z,37.17
2022-08-03T16:14:54.152Z,37.59
2022-08-03T16:17:21.913Z,36.41
2022-08-03T16:19:48.863Z,36.31
2022-08-03T16:22:17.433Z,37.23
2022-08-03T16:24:46.968Z,37.76
2022-08-03T16:27:17.495Z,37.63
2022-08-03T16:30:00.133Z,37.20
2022-08-03T16:32:26.950Z,37.52
2022-08-03T16:34:53.448Z,37.57
2022-08-03T16:37:38.129Z,37.59
2022-08-03T16:40:08.860Z,37.19
2022-08-03T16:42:44.303Z,37.26
2022-08-03T16:45:11.114Z,36.70
2022-08-03T16:47:37.717Z,36.92
2022-08-03T16:50:13.982Z,36.36
2022-08-03T16:52:47.187Z,36.59
2022-08-03T16:55:15.567Z,36.66
2022-08-03T16:57:58.321Z,36.30
2022-08-03T17:00:32.916Z,36.20
2022-08-03T17:03:04.112Z,35.75
2022-08-03T17:05:43.621Z,36.29
2022-08-03T17:08:13.505Z,35.81
2022-08-03T17:10:42.510Z,36.19
2022-08-03T17:13:21.516Z,36.01
2022-08-03T17:15:58.319Z,34.95
2022-08-03T17:18:32.448Z,35.27
2022-08-03T17:21:03.263Z,35.21
2022-08-03T17:23:46.328Z,35.62
2022-08-03T17:26:21.070Z,35.71
2022-08-03T17:28:57.463Z,35.78
2022-08-03T17:31:31.332Z,34.95
2022-08-03T17:34:01.306Z,34.97
2022-08-03T17:36:47.623Z,35.10
2022-08-03T17:39:16.671Z,34.99
2022-08-03T17:41:49.844Z,35.02
2022-08-03T17:44:35.219Z,35.15
2022-08-03T17:47:06.691Z,35.43
2022-08-03T17:49:40.032Z,34.75
2022-08-03T17:52:17.847Z,34.80
2022-08-03T17:55:55.379Z,34.46
2022-08-03T17:58:01.578Z,34.57
2022-08-03T18:00:55.741Z,35.02
2022-08-03T18:03:57.051Z,34.69
2022-08-03T18:06:28.873Z,34.93
2022-08-03T18:08:59.980Z,34.98
2022-08-03T18:11:35.710Z,34.89
2022-08-03T18:14:24.096Z,34.50
2022-08-03T18:17:05.284Z,34.61
2022-08-03T18:20:01.918Z,34.22
2022-08-03T18:22:28.186Z,34.35
2022-08-03T18:24:58.649Z,34.21
2022-08-03T18:27:42.600Z,34.03
2022-08-03T18:30:11.992Z,34.00
2022-08-03T18:32:38.666Z,34.13
2022-08-03T18:35:06.237Z,33.98
2022-08-03T18:37:51.965Z,34.01
2022-08-03T18:40:20.921Z,33.91
2022-08-03T18:42:52.938Z,33.86
2022-08-03T18:45:57.628Z,33.80
2022-08-03T18:48:21.523Z,33.71
2022-08-03T18:50:58.713Z,33.57
2022-08-03T18:54:03.317Z,33.31
2022-08-03T18:56:49.635Z,33.00
2022-08-03T18:59:30.613Z,33.17
2022-08-03T19:02:04.002Z,33.06
2022-08-03T19:04:54.928Z,32.93
2022-08-03T19:07:27.049Z,33.06
2022-08-03T19:10:04.742Z,32.86
2022-08-03T19:12:46.068Z,32.77
2022-08-03T19:18:07.351Z,32.68
2022-08-03T19:20:37.771Z,32.54
2022-08-03T19:23:04.392Z,32.16
2022-08-03T19:25:38.012Z,32.41
2022-08-03T19:28:06.176Z,32.42
2022-08-03T19:30:39.732Z,32.49
2022-08-03T19:33:10.531Z,32.37
2022-08-03T19:35:55.420Z,32.35
2022-08-03T19:38:28.167Z,32.14
2022-08-03T19:41:02.472Z,32.19
2022-08-03T19:43:49.318Z,32.12
2022-08-03T19:46:30.506Z,31.99
2022-08-03T19:49:16.444Z,31.93
2022-08-03T19:51:58.487Z,31.95
2022-08-03T19:54:53.357Z,31.71
2022-08-03T19:57:23.951Z,31.66
2022-08-03T19:59:52.907Z,31.61
2022-08-03T20:02:26.540Z,31.20
2022-08-03T20:04:53.977Z,31.11
2022-08-03T20:07:22.738Z,31.01
2022-08-03T20:09:54.590Z,30.89
2022-08-03T20:12:27.581Z,30.68
2022-08-03T20:14:58.881Z,30.80
2022-08-03T20:17:55.367Z,30.70
2022-08-03T20:20:13.600Z,30.62
2022-08-03T20:22:46.183Z,30.51
2022-08-03T20:25:13.347Z,30.06
2022-08-03T20:28:07.108Z,30.16
2022-08-03T20:30:35.340Z,29.94
2022-08-03T20:33:02.082Z,29.84
2022-08-03T20:35:30.255Z,30.00
2022-08-03T20:37:57.884Z,30.09
2022-08-03T20:40:27.398Z,29.78
2022-08-03T20:42:55.496Z,29.97
2022-08-03T20:46:01.009Z,29.56
2022-08-03T20:48:09.839Z,29.34
2022-08-03T20:50:38.434Z,29.23
2022-08-03T20:53:06.687Z,29.52
2022-08-03T20:55:48.194Z,29.47
2022-08-03T20:58:20.492Z,29.40
2022-08-03T21:00:51.464Z,29.30
2022-08-03T21:03:18.896Z,29.30
2022-08-03T21:05:48.250Z,29.19
2022-08-03T21:08:21.673Z,28.96
2022-08-03T21:10:49.244Z,28.94
2022-08-03T21:13:10.495Z,32.61
2022-08-03T21:13:41.871Z,29.13
2022-08-03T21:16:13.899Z,29.03
2022-08-03T21:18:45.919Z,28.76
2022-08-03T21:21:15.509Z,28.89
2022-08-03T21:23:48.865Z,28.66
2022-08-03T21:26:18.020Z,28.78
2022-08-03T21:28:46.626Z,28.65
2022-08-03T21:31:14.125Z,28.82
2022-08-03T21:33:47.110Z,28.79
2022-08-03T21:36:14.658Z,28.57
2022-08-03T21:38:41.887Z,28.67
2022-08-03T21:41:08.866Z,28.67
2022-08-03T21:43:35.445Z,28.43
2022-08-03T21:46:04.896Z,28.42
2022-08-03T21:48:37.574Z,28.45
2022-08-03T21:51:05.772Z,28.49
2022-08-03T21:54:02.978Z,28.49
2022-08-03T21:56:21.877Z,28.59
2022-08-03T21:58:56.399Z,28.56
2022-08-03T22:01:26.706Z,28.55
2022-08-03T22:03:54.809Z,28.60
2022-08-03T22:06:27.628Z,28.58
2022-08-03T22:08:54.592Z,28.43
2022-08-03T22:11:21.638Z,28.56
2022-08-03T22:13:48.380Z,28.52
2022-08-03T22:16:15.621Z,28.30
2022-08-03T22:18:44.472Z,27.76
2022-08-03T22:21:13.083Z,27.81
2022-08-03T22:23:50.904Z,27.93
2022-08-03T22:26:34.729Z,27.97
2022-08-03T22:29:06.539Z,27.97
2022-08-03T22:31:58.837Z,27.93
2022-08-03T22:34:26.551Z,27.76
2022-08-03T22:36:57.339Z,27.92
2022-08-03T22:39:28.824Z,27.83
2022-08-03T22:41:58.884Z,27.99
2022-08-03T22:44:27.064Z,27.99
2022-08-03T22:46:53.724Z,28.03
2022-08-03T22:49:20.811Z,28.03
2022-08-03T22:51:47.534Z,28.25
2022-08-03T22:54:14.595Z,28.41
2022-08-03T22:56:41.424Z,28.07
2022-08-03T22:59:39.990Z,28.18
2022-08-03T23:01:56.748Z,28.38
2022-08-03T23:04:24.460Z,28.09
2022-08-03T23:06:51.669Z,28.24
2022-08-03T23:09:19.489Z,28.09
2022-08-03T23:11:46.725Z,28.31
2022-08-03T23:14:15.324Z,28.22
2022-08-03T23:16:44.002Z,28.23
2022-08-03T23:19:17.288Z,28.30
2022-08-03T23:22:03.221Z,28.20
2022-08-03T23:24:33.661Z,28.17
2022-08-03T23:27:03.019Z,28.06
2022-08-03T23:29:30.581Z,27.89
2022-08-03T23:31:59.469Z,28.07
2022-08-03T23:34:45.641Z,27.89
2022-08-03T23:37:15.808Z,27.99
2022-08-03T23:39:47.141Z,27.78
2022-08-03T23:42:16.999Z,27.79
2022-08-03T23:44:44.610Z,27.77
2022-08-03T23:47:14.367Z,27.81
2022-08-03T23:49:41.047Z,27.82
2022-08-03T23:52:45.309Z,27.90
2022-08-03T23:55:39.296Z,27.67
2022-08-03T23:58:15.256Z,27.31
